Time;durP1;ratioP1;P1;durP2;ratioP2;P2;SDS_P1;SDS_P2;PMS_P1;PMS_P2;Temp;Humidity;BMP_temperature;BMP_pressure;BME280_temperature;BME280_humidity;BME280_pressure;Samples;Min_cycle;Max_cycle;Signal;HPM_P1;HPM_P2
2022/07/13 00:00:57;;;;;;;59.40;3.40;;;;;;;;;;5091672;28;20446;-66
2022/07/13 00:03:24;;;;;;;59.70;3.60;;;;;;;;;;5091817;28;20838;-66
2022/07/13 00:05:51;;;;;;;59.70;3.80;;;;;;;;;;5091551;28;20449;-67
2022/07/13 00:08:18;;;;;;;59.53;3.53;;;;;;;;;;5091500;28;20455;-66
2022/07/13 00:10:45;;;;;;;59.33;3.53;;;;;;;;;;5091620;28;20572;-66
2022/07/13 00:13:12;;;;;;;59.70;3.90;;;;;;;;;;5091503;28;20449;-66
2022/07/13 00:15:39;;;;;;;59.40;3.37;;;;;;;;;;5091839;28;20450;-67
2022/07/13 00:18:08;;;;;;;59.47;3.60;;;;;;;;;;5091614;28;20443;-67
2022/07/13 00:20:35;;;;;;;59.27;3.33;;;;;;;;;;5091808;28;20440;-66
2022/07/13 00:23:03;;;;;;;59.37;3.50;;;;;;;;;;5091526;28;20452;-66
2022/07/13 00:25:30;;;;;;;59.37;3.60;;;;;;;;;;5091628;28;20453;-67
2022/07/13 00:27:57;;;;;;;59.10;3.40;;;;;;;;;;5091077;28;20447;-67
2022/07/13 00:30:24;;;;;;;59.53;3.50;;;;;;;;;;5091601;28;20479;-66
2022/07/13 00:32:51;;;;;;;61.07;4.30;;;;;;;;;;5091695;28;20448;-66
2022/07/13 00:35:20;;;;;;;59.20;3.40;;;;;;;;;;5091558;28;20856;-66
2022/07/13 00:37:47;;;;;;;59.30;3.60;;;;;;;;;;5091040;28;20933;-66
2022/07/13 00:40:14;;;;;;;59.03;3.33;;;;;;;;;;5091400;28;20445;-67
2022/07/13 00:42:41;;;;;;;59.97;4.43;;;;;;;;;;5091188;28;20444;-67
2022/07/13 00:45:09;;;;;;;59.00;3.70;;;;;;;;;;5091245;28;20984;-67
2022/07/13 00:47:36;;;;;;;59.60;3.50;;;;;;;;;;5091172;28;20453;-67
2022/07/13 00:50:06;;;;;;;59.10;3.40;;;;;;;;;;5091406;28;20491;-67
2022/07/13 00:52:35;;;;;;;59.90;3.80;;;;;;;;;;5091436;28;20462;-67
2022/07/13 00:55:03;;;;;;;59.43;3.43;;;;;;;;;;5091197;28;20471;-67
2022/07/13 00:57:33;;;;;;;59.57;3.37;;;;;;;;;;5091227;28;20824;-66
2022/07/13 01:00:00;;;;;;;60.13;4.00;;;;;;;;;;5091199;28;20933;-67
2022/07/13 01:02:27;;;;;;;59.80;3.50;;;;;;;;;;5091111;28;20933;-67
2022/07/13 01:04:54;;;;;;;59.70;3.67;;;;;;;;;;5091215;28;20828;-66
2022/07/13 01:07:21;;;;;;;60.30;3.53;;;;;;;;;;5093370;28;20455;-66
2022/07/13 01:09:50;;;;;;;59.50;3.70;;;;;;;;;;5094675;28;20453;-66
2022/07/13 01:12:17;;;;;;;59.40;3.60;;;;;;;;;;5094791;28;20451;-66
2022/07/13 01:14:44;;;;;;;59.87;3.70;;;;;;;;;;5094693;28;20821;-66
2022/07/13 01:17:11;;;;;;;59.30;3.60;;;;;;;;;;5094464;28;20893;-66
2022/07/13 01:19:38;;;;;;;59.27;3.60;;;;;;;;;;5094550;28;20444;-66
2022/07/13 01:22:07;;;;;;;62.57;3.70;;;;;;;;;;5094458;28;20875;-66
2022/07/13 01:24:35;;;;;;;60.30;3.80;;;;;;;;;;5094314;28;20840;-66
2022/07/13 01:27:03;;;;;;;59.97;3.70;;;;;;;;;;5094477;28;20449;-66
2022/07/13 01:29:30;;;;;;;60.40;3.67;;;;;;;;;;5092524;28;20941;-66
2022/07/13 01:32:01;;;;;;;59.60;3.80;;;;;;;;;;5094513;28;20444;-66
2022/07/13 01:34:28;;;;;;;63.10;4.07;;;;;;;;;;5094281;28;20489;-67
2022/07/13 01:36:56;;;;;;;59.50;3.73;;;;;;;;;;5094285;28;20444;-66
2022/07/13 01:39:23;;;;;;;60.13;4.00;;;;;;;;;;5094002;28;20542;-66
2022/07/13 01:41:51;;;;;;;59.87;3.70;;;;;;;;;;5094068;28;20491;-66
2022/07/13 01:44:18;;;;;;;59.17;3.20;;;;;;;;;;5093911;28;20454;-68
2022/07/13 01:46:46;;;;;;;61.73;3.70;;;;;;;;;;5094264;28;20442;-67
2022/07/13 01:49:13;;;;;;;59.47;3.80;;;;;;;;;;5093811;28;20450;-67
2022/07/13 01:51:40;;;;;;;59.17;3.50;;;;;;;;;;5094067;28;20467;-67
2022/07/13 01:54:08;;;;;;;59.10;3.77;;;;;;;;;;5093795;28;20462;-67
2022/07/13 01:56:35;;;;;;;59.43;3.40;;;;;;;;;;5093824;28;20448;-67
2022/07/13 01:59:03;;;;;;;59.60;3.70;;;;;;;;;;5093737;28;20453;-67
2022/07/13 02:01:30;;;;;;;59.07;3.47;;;;;;;;;;5093708;28;21002;-66
2022/07/13 02:03:58;;;;;;;59.80;3.80;;;;;;;;;;5093690;28;20462;-66
2022/07/13 02:06:25;;;;;;;60.13;3.93;;;;;;;;;;5093661;28;20478;-66
2022/07/13 02:08:52;;;;;;;59.10;3.60;;;;;;;;;;5093234;28;20472;-67
2022/07/13 02:11:20;;;;;;;59.20;3.80;;;;;;;;;;5093525;28;20445;-67
2022/07/13 02:13:47;;;;;;;59.37;3.27;;;;;;;;;;5093359;28;20502;-67
2022/07/13 02:16:16;;;;;;;60.07;3.60;;;;;;;;;;5093594;28;20531;-67
2022/07/13 02:18:44;;;;;;;58.97;3.10;;;;;;;;;;5092788;28;20451;-67
2022/07/13 02:21:12;;;;;;;59.63;3.40;;;;;;;;;;5093237;28;20571;-67
2022/07/13 02:23:39;;;;;;;59.23;3.47;;;;;;;;;;5093253;28;20806;-67
2022/07/13 02:26:07;;;;;;;59.20;3.23;;;;;;;;;;5093537;28;20451;-67
2022/07/13 02:28:34;;;;;;;59.77;3.73;;;;;;;;;;5092901;28;20978;-66
2022/07/13 02:31:01;;;;;;;60.00;3.97;;;;;;;;;;5093069;28;20455;-67
2022/07/13 02:33:29;;;;;;;59.37;3.60;;;;;;;;;;5092926;28;20484;-67
2022/07/13 02:35:56;;;;;;;59.20;3.40;;;;;;;;;;5093155;28;20450;-67
2022/07/13 02:38:24;;;;;;;59.40;3.70;;;;;;;;;;5092660;28;20453;-67
2022/07/13 02:40:51;;;;;;;62.57;3.70;;;;;;;;;;5093118;28;20535;-67
2022/07/13 02:43:18;;;;;;;58.90;3.03;;;;;;;;;;5093183;28;20475;-67
2022/07/13 02:45:45;;;;;;;59.63;3.77;;;;;;;;;;5093108;28;20449;-67
2022/07/13 02:48:12;;;;;;;58.90;3.40;;;;;;;;;;5092515;28;20450;-68
2022/07/13 02:50:41;;;;;;;58.77;3.07;;;;;;;;;;5092825;28;20824;-68
2022/07/13 02:53:08;;;;;;;59.20;3.27;;;;;;;;;;5093018;28;20555;-68
2022/07/13 02:55:35;;;;;;;59.80;3.50;;;;;;;;;;5093170;28;20544;-68
2022/07/13 02:58:02;;;;;;;60.20;3.93;;;;;;;;;;5092236;28;20450;-68
2022/07/13 03:00:29;;;;;;;59.43;3.67;;;;;;;;;;5092560;28;20453;-68
2022/07/13 03:02:57;;;;;;;59.37;3.47;;;;;;;;;;5092521;28;20476;-68
2022/07/13 03:05:24;;;;;;;59.30;3.53;;;;;;;;;;5092314;28;20479;-68
2022/07/13 03:07:52;;;;;;;59.93;3.60;;;;;;;;;;5092494;28;20480;-68
2022/07/13 03:10:19;;;;;;;59.20;3.30;;;;;;;;;;5092617;28;20448;-68
2022/07/13 03:12:46;;;;;;;59.13;3.40;;;;;;;;;;5092528;28;20445;-68
2022/07/13 03:15:14;;;;;;;59.47;3.53;;;;;;;;;;5092272;28;20464;-68
2022/07/13 03:17:42;;;;;;;68.03;3.77;;;;;;;;;;5091920;28;20456;-68
2022/07/13 03:20:10;;;;;;;59.70;3.80;;;;;;;;;;5092188;28;20517;-68
2022/07/13 03:22:37;;;;;;;59.27;3.73;;;;;;;;;;5092309;28;20491;-68
2022/07/13 03:25:06;;;;;;;59.17;3.40;;;;;;;;;;5092237;28;20470;-68
2022/07/13 03:27:33;;;;;;;59.40;3.50;;;;;;;;;;5092021;28;20456;-68
2022/07/13 03:30:01;;;;;;;60.40;3.83;;;;;;;;;;5091530;28;20452;-68
2022/07/13 03:32:28;;;;;;;59.17;3.73;;;;;;;;;;5091960;28;20463;-68
2022/07/13 03:34:55;;;;;;;59.30;3.33;;;;;;;;;;5092027;28;20478;-68
2022/07/13 03:37:22;;;;;;;62.17;3.83;;;;;;;;;;5091759;28;20450;-68
2022/07/13 03:39:49;;;;;;;59.50;3.83;;;;;;;;;;5092194;28;20451;-68
2022/07/13 03:42:18;;;;;;;59.47;3.37;;;;;;;;;;5092214;28;20480;-68
2022/07/13 03:44:45;;;;;;;59.03;3.50;;;;;;;;;;5091749;28;20468;-68
2022/07/13 03:47:12;;;;;;;60.80;3.77;;;;;;;;;;5091532;28;20957;-68
2022/07/13 03:49:39;;;;;;;59.60;4.03;;;;;;;;;;5092039;28;20448;-68
2022/07/13 03:52:06;;;;;;;59.70;3.63;;;;;;;;;;5092100;28;20442;-68
2022/07/13 03:54:34;;;;;;;59.00;3.20;;;;;;;;;;5091775;28;20498;-68
2022/07/13 03:57:01;;;;;;;60.30;4.00;;;;;;;;;;5091728;28;20503;-68
2022/07/13 03:59:29;;;;;;;58.97;3.60;;;;;;;;;;5091473;28;20452;-68
2022/07/13 04:01:57;;;;;;;59.30;3.90;;;;;;;;;;5091615;28;21015;-68
2022/07/13 04:04:26;;;;;;;59.40;4.00;;;;;;;;;;5091827;28;20561;-68
2022/07/13 04:06:53;;;;;;;59.60;3.87;;;;;;;;;;5091907;28;20459;-68
2022/07/13 04:09:20;;;;;;;59.60;3.57;;;;;;;;;;5091409;28;20946;-68
2022/07/13 04:11:48;;;;;;;59.70;3.70;;;;;;;;;;5091477;28;20968;-69
2022/07/13 04:14:16;;;;;;;59.40;3.83;;;;;;;;;;5091488;28;20480;-68
2022/07/13 04:16:44;;;;;;;59.30;3.40;;;;;;;;;;5091597;28;20448;-68
2022/07/13 04:19:11;;;;;;;60.70;4.17;;;;;;;;;;5091330;28;20543;-68
2022/07/13 04:21:38;;;;;;;59.67;3.70;;;;;;;;;;5091642;28;20481;-68
2022/07/13 04:24:06;;;;;;;59.03;3.53;;;;;;;;;;5091464;28;20501;-68
2022/07/13 04:26:34;;;;;;;59.33;3.83;;;;;;;;;;5092040;28;20537;-67
2022/07/13 04:29:01;;;;;;;59.97;3.80;;;;;;;;;;5091537;28;20448;-68
2022/07/13 04:31:28;;;;;;;59.47;3.50;;;;;;;;;;5091620;28;20446;-68
2022/07/13 04:33:56;;;;;;;59.70;3.70;;;;;;;;;;5091327;28;20479;-68
2022/07/13 04:36:24;;;;;;;59.60;3.30;;;;;;;;;;5091615;28;20455;-68
2022/07/13 04:38:51;;;;;;;61.50;3.57;;;;;;;;;;5090973;28;20534;-67
2022/07/13 04:41:18;;;;;;;62.83;4.20;;;;;;;;;;5093483;28;20852;-66
2022/07/13 04:43:45;;;;;;;59.40;3.60;;;;;;;;;;5095254;28;20476;-67
2022/07/13 04:46:13;;;;;;;59.90;3.73;;;;;;;;;;5095330;28;20456;-68
2022/07/13 04:48:40;;;;;;;59.27;3.27;;;;;;;;;;5095035;28;20471;-67
2022/07/13 04:51:09;;;;;;;59.20;3.73;;;;;;;;;;5095146;28;20444;-68
2022/07/13 04:53:36;;;;;;;59.00;3.53;;;;;;;;;;5094901;28;20467;-68
2022/07/13 04:56:03;;;;;;;59.37;3.53;;;;;;;;;;5095180;28;20449;-68
2022/07/13 04:58:32;;;;;;;59.20;3.50;;;;;;;;;;5094816;28;20443;-68
2022/07/13 05:01:00;;;;;;;59.17;3.40;;;;;;;;;;5093093;28;20459;-68
2022/07/13 05:03:27;;;;;;;59.57;3.50;;;;;;;;;;5093102;28;20469;-68
2022/07/13 05:05:55;;;;;;;59.90;3.97;;;;;;;;;;5093163;28;20828;-68
2022/07/13 05:08:23;;;;;;;58.90;3.47;;;;;;;;;;5092916;28;20455;-68
2022/07/13 05:10:50;;;;;;;59.43;3.50;;;;;;;;;;5093334;28;20447;-68
2022/07/13 05:13:18;;;;;;;59.07;3.43;;;;;;;;;;5093276;28;20954;-68
2022/07/13 05:15:45;;;;;;;59.53;3.40;;;;;;;;;;5093603;28;20455;-68
2022/07/13 05:18:12;;;;;;;59.43;4.20;;;;;;;;;;5094480;28;20841;-68
2022/07/13 05:20:39;;;;;;;59.10;3.70;;;;;;;;;;5094692;28;20449;-68
2022/07/13 05:23:07;;;;;;;59.50;3.40;;;;;;;;;;5094544;28;20580;-68
2022/07/13 05:25:35;;;;;;;59.57;3.70;;;;;;;;;;5094713;28;20822;-68
2022/07/13 05:28:03;;;;;;;59.30;3.37;;;;;;;;;;5094178;28;21001;-68
2022/07/13 05:30:30;;;;;;;59.07;3.40;;;;;;;;;;5094441;28;20450;-68
2022/07/13 05:32:57;;;;;;;59.67;3.90;;;;;;;;;;5094260;28;20512;-68
2022/07/13 05:35:25;;;;;;;58.97;3.23;;;;;;;;;;5094234;28;20470;-68
2022/07/13 05:37:52;;;;;;;59.17;3.40;;;;;;;;;;5094253;28;20812;-68
2022/07/13 05:40:19;;;;;;;59.37;3.17;;;;;;;;;;5094407;28;20449;-68
2022/07/13 05:42:47;;;;;;;59.67;3.37;;;;;;;;;;5094060;28;20482;-68
2022/07/13 05:45:15;;;;;;;59.10;3.20;;;;;;;;;;5094076;28;20466;-68
2022/07/13 05:47:45;;;;;;;58.70;2.90;;;;;;;;;;5093766;28;20443;-68
2022/07/13 05:50:12;;;;;;;59.47;3.40;;;;;;;;;;5093896;28;20442;-68
2022/07/13 05:52:40;;;;;;;58.60;2.90;;;;;;;;;;5093513;28;20790;-68
2022/07/13 05:55:07;;;;;;;59.17;3.33;;;;;;;;;;5093806;28;21003;-66
2022/07/13 05:57:34;;;;;;;59.00;3.17;;;;;;;;;;5093646;28;20559;-68
2022/07/13 06:00:05;;;;;;;59.23;3.07;;;;;;;;;;5093663;28;20448;-66
2022/07/13 06:02:32;;;;;;;59.50;3.40;;;;;;;;;;5093547;28;20485;-66
2022/07/13 06:04:59;;;;;;;58.83;3.00;;;;;;;;;;5093667;28;20799;-66
2022/07/13 06:07:26;;;;;;;59.00;3.07;;;;;;;;;;5093654;28;20798;-66
2022/07/13 06:09:53;;;;;;;60.90;3.60;;;;;;;;;;5093684;28;20457;-68
2022/07/13 06:12:21;;;;;;;58.87;3.30;;;;;;;;;;5093504;28;20449;-66
2022/07/13 06:14:48;;;;;;;59.30;3.20;;;;;;;;;;5093453;28;20471;-66
2022/07/13 06:17:16;;;;;;;59.10;3.20;;;;;;;;;;5093159;28;20456;-67
2022/07/13 06:19:43;;;;;;;59.87;3.07;;;;;;;;;;5093553;28;20442;-67
2022/07/13 06:22:10;;;;;;;59.60;3.20;;;;;;;;;;5093093;28;20478;-67
2022/07/13 06:24:37;;;;;;;58.27;2.60;;;;;;;;;;5093362;28;20469;-67
2022/07/13 06:27:05;;;;;;;63.73;2.90;;;;;;;;;;5093179;28;20814;-67
2022/07/13 06:29:32;;;;;;;58.27;2.73;;;;;;;;;;5092944;28;20512;-67
2022/07/13 06:31:59;;;;;;;61.67;3.00;;;;;;;;;;5093474;28;20478;-68
2022/07/13 06:34:28;;;;;;;58.93;2.83;;;;;;;;;;5092890;28;20486;-68
2022/07/13 06:36:55;;;;;;;59.70;2.83;;;;;;;;;;5093196;28;20449;-68
2022/07/13 06:39:22;;;;;;;58.90;2.97;;;;;;;;;;5092797;28;20455;-68
2022/07/13 06:41:49;;;;;;;59.30;3.20;;;;;;;;;;5093017;28;20452;-68
2022/07/13 06:44:16;;;;;;;59.73;3.13;;;;;;;;;;5092681;28;20466;-68
2022/07/13 06:46:43;;;;;;;58.97;3.30;;;;;;;;;;5092866;28;20460;-68
2022/07/13 06:49:10;;;;;;;58.13;2.97;;;;;;;;;;5092759;28;20449;-68
2022/07/13 06:51:40;;;;;;;62.90;3.30;;;;;;;;;;5092765;28;20974;-68
2022/07/13 06:54:07;;;;;;;59.00;2.90;;;;;;;;;;5092650;28;20468;-68
2022/07/13 06:56:34;;;;;;;58.70;2.87;;;;;;;;;;5092718;28;20442;-68
2022/07/13 06:59:01;;;;;;;59.00;3.10;;;;;;;;;;5092358;28;20927;-68
2022/07/13 07:01:28;;;;;;;57.97;2.80;;;;;;;;;;5092844;28;20452;-68
2022/07/13 07:03:56;;;;;;;58.47;2.80;;;;;;;;;;5089385;28;20999;-69
2022/07/13 07:06:23;;;;;;;58.70;3.00;;;;;;;;;;5091176;28;20443;-68
2022/07/13 07:08:51;;;;;;;58.60;2.80;;;;;;;;;;5091462;28;20830;-70
2022/07/13 07:11:18;;;;;;;58.97;3.13;;;;;;;;;;5091721;28;20443;-67
2022/07/13 07:13:46;;;;;;;58.43;3.10;;;;;;;;;;5091643;28;20494;-68
2022/07/13 07:16:13;;;;;;;58.70;3.60;;;;;;;;;;5092051;28;20442;-68
2022/07/13 07:18:40;;;;;;;58.07;3.10;;;;;;;;;;5091847;28;20957;-70
2022/07/13 07:21:07;;;;;;;59.00;3.20;;;;;;;;;;5091701;28;20458;-70
2022/07/13 07:23:34;;;;;;;58.60;2.73;;;;;;;;;;5091357;28;20920;-69
2022/07/13 07:26:03;;;;;;;58.33;2.43;;;;;;;;;;5089153;28;20466;-66
2022/07/13 07:28:31;;;;;;;57.87;2.53;;;;;;;;;;5091671;28;20458;-68
2022/07/13 07:30:58;;;;;;;58.77;3.10;;;;;;;;;;5091946;28;20482;-68
2022/07/13 07:33:25;;;;;;;58.37;2.67;;;;;;;;;;5091582;28;20505;-68
2022/07/13 07:35:52;;;;;;;58.80;2.80;;;;;;;;;;5091758;28;20442;-66
2022/07/13 07:38:19;;;;;;;58.60;2.63;;;;;;;;;;5091403;28;20533;-67
2022/07/13 07:40:46;;;;;;;58.67;2.60;;;;;;;;;;5091924;28;20465;-67
2022/07/13 07:43:15;;;;;;;58.87;2.80;;;;;;;;;;5091397;28;20481;-67
2022/07/13 07:45:42;;;;;;;58.57;2.93;;;;;;;;;;5091886;28;20835;-67
2022/07/13 07:48:09;;;;;;;58.60;2.83;;;;;;;;;;5091714;28;20447;-67
2022/07/13 07:50:36;;;;;;;58.80;2.93;;;;;;;;;;5091381;28;20448;-67
2022/07/13 07:53:04;;;;;;;58.17;2.83;;;;;;;;;;5090783;28;20972;-67
2022/07/13 07:55:31;;;;;;;59.60;2.87;;;;;;;;;;5090700;28;20458;-67
2022/07/13 07:57:58;;;;;;;57.77;2.60;;;;;;;;;;5089114;28;20448;-67
2022/07/13 08:00:27;;;;;;;62.70;2.90;;;;;;;;;;5090147;28;20440;-67
2022/07/13 08:02:57;;;;;;;58.17;3.00;;;;;;;;;;5091162;28;20224;-67
2022/07/13 08:05:24;;;;;;;58.40;2.80;;;;;;;;;;5091346;28;20559;-66
2022/07/13 08:07:51;;;;;;;59.30;3.10;;;;;;;;;;5090978;28;20466;-67
2022/07/13 08:10:18;;;;;;;58.30;2.80;;;;;;;;;;5091793;28;20499;-66
2022/07/13 08:12:46;;;;;;;58.03;2.60;;;;;;;;;;5091493;28;20472;-67
2022/07/13 08:15:13;;;;;;;58.27;2.70;;;;;;;;;;5092155;28;20549;-67
2022/07/13 08:17:41;;;;;;;58.57;2.40;;;;;;;;;;5095764;28;20446;-67
2022/07/13 08:20:11;;;;;;;58.23;2.47;;;;;;;;;;5095169;28;20450;-67
2022/07/13 08:22:39;;;;;;;57.97;2.30;;;;;;;;;;5095444;28;20484;-68
2022/07/13 08:25:06;;;;;;;58.57;2.43;;;;;;;;;;5089557;28;20475;-67
2022/07/13 08:27:33;;;;;;;58.40;2.80;;;;;;;;;;5091756;28;20537;-67
2022/07/13 08:30:00;;;;;;;58.10;2.57;;;;;;;;;;5094279;28;20828;-67
2022/07/13 08:32:28;;;;;;;58.17;2.13;;;;;;;;;;5094743;28;20446;-67
2022/07/13 08:40:26;;;;;;;58.30;2.53;;;;;;;;;;5095502;28;20417;-68
2022/07/13 08:42:53;;;;;;;57.93;2.20;;;;;;;;;;5094766;28;20513;-68
2022/07/13 08:45:20;;;;;;;58.97;2.20;;;;;;;;;;5095261;28;20476;-68
2022/07/13 08:47:48;;;;;;;58.20;2.60;;;;;;;;;;5094929;28;20456;-68
2022/07/13 08:50:18;;;;;;;59.17;2.67;;;;;;;;;;5095153;28;20452;-68
2022/07/13 08:52:45;;;;;;;61.60;2.40;;;;;;;;;;5094774;28;20956;-68
2022/07/13 08:55:12;;;;;;;57.90;2.40;;;;;;;;;;5094743;28;20462;-68
2022/07/13 08:57:41;;;;;;;58.10;2.37;;;;;;;;;;5093956;28;20556;-68
2022/07/13 09:00:10;;;;;;;61.10;2.43;;;;;;;;;;5091107;28;20482;-68
2022/07/13 09:02:38;;;;;;;59.23;2.50;;;;;;;;;;5095016;28;20478;-68
2022/07/13 09:05:05;;;;;;;58.87;2.40;;;;;;;;;;5094592;28;20493;-68
2022/07/13 09:07:34;;;;;;;57.67;2.03;;;;;;;;;;5094092;28;20942;-68
2022/07/13 09:10:02;;;;;;;59.80;2.30;;;;;;;;;;5094193;28;20446;-68
2022/07/13 09:12:29;;;;;;;57.87;2.30;;;;;;;;;;5094460;28;20507;-68
2022/07/13 09:14:57;;;;;;;57.67;2.40;;;;;;;;;;5094559;28;20466;-68
2022/07/13 09:17:37;;;;;;;58.10;2.17;;;;;;;;;;5093832;28;20447;-68
2022/07/13 09:20:20;;;;;;;58.03;2.40;;;;;;;;;;5094345;28;21006;-68
2022/07/13 09:22:49;;;;;;;57.80;2.17;;;;;;;;;;5092181;28;20514;-67
2022/07/13 09:25:25;;;;;;;58.20;2.30;;;;;;;;;;5094079;28;20470;-67
2022/07/13 09:27:53;;;;;;;58.00;2.53;;;;;;;;;;5093372;28;20449;-68
2022/07/13 09:30:24;;;;;;;57.97;2.30;;;;;;;;;;5090912;28;20457;-67
2022/07/13 09:32:52;;;;;;;58.40;2.30;;;;;;;;;;5093766;28;20927;-68
2022/07/13 09:35:21;;;;;;;57.70;2.20;;;;;;;;;;5094009;28;21144;-68
2022/07/13 09:37:49;;;;;;;58.00;2.20;;;;;;;;;;5093632;28;20493;-68
2022/07/13 09:40:18;;;;;;;57.83;2.10;;;;;;;;;;5093745;28;20512;-68
2022/07/13 09:46:08;;;;;;;57.87;2.40;;;;;;;;;;5093817;28;20458;-68
2022/07/13 09:48:25;;;;;;;58.80;2.13;;;;;;;;;;5093513;28;21057;-68
2022/07/13 09:50:55;;;;;;;57.70;2.17;;;;;;;;;;5093723;28;20454;-68
2022/07/13 09:53:28;;;;;;;58.20;2.20;;;;;;;;;;5093553;28;20537;-68
2022/07/13 09:55:57;;;;;;;57.70;2.10;;;;;;;;;;5093499;28;20445;-68
2022/07/13 09:58:28;;;;;;;58.10;2.30;;;;;;;;;;5093165;28;20450;-68
2022/07/13 10:00:56;;;;;;;58.00;2.37;;;;;;;;;;5090511;28;20446;-68
2022/07/13 10:03:24;;;;;;;57.57;2.00;;;;;;;;;;5092933;28;20850;-67
2022/07/13 10:05:51;;;;;;;57.70;2.27;;;;;;;;;;5093091;28;20448;-67
2022/07/13 10:08:19;;;;;;;57.90;2.40;;;;;;;;;;5093102;28;20443;-67
2022/07/13 10:10:48;;;;;;;59.60;2.73;;;;;;;;;;5093318;28;21192;-65
2022/07/13 10:13:16;;;;;;;57.67;2.10;;;;;;;;;;5093285;28;20525;-68
2022/07/13 10:15:44;;;;;;;57.80;2.07;;;;;;;;;;5093268;28;20451;-68
2022/07/13 10:18:12;;;;;;;57.60;2.20;;;;;;;;;;5092747;28;20446;-68
2022/07/13 10:20:43;;;;;;;57.47;2.03;;;;;;;;;;5093138;28;20447;-68
2022/07/13 10:23:10;;;;;;;58.07;2.27;;;;;;;;;;5092853;28;20848;-68
2022/07/13 10:25:44;;;;;;;57.70;2.30;;;;;;;;;;5093489;28;20528;-68
2022/07/13 10:28:13;;;;;;;57.80;2.10;;;;;;;;;;5092751;28;20449;-66
2022/07/13 10:30:40;;;;;;;57.80;2.10;;;;;;;;;;5092975;28;20968;-67
2022/07/13 10:33:20;;;;;;;57.07;2.00;;;;;;;;;;5089071;28;20537;-67
2022/07/13 10:35:49;;;;;;;58.73;2.13;;;;;;;;;;5092859;28;20934;-67
2022/07/13 10:38:17;;;;;;;58.17;2.00;;;;;;;;;;5091640;28;20446;-67
2022/07/13 10:40:44;;;;;;;56.87;1.80;;;;;;;;;;5091708;28;20449;-67
2022/07/13 10:43:15;;;;;;;57.00;2.23;;;;;;;;;;5092493;28;20478;-67
2022/07/13 10:45:43;;;;;;;57.20;2.30;;;;;;;;;;5092453;28;20485;-67
2022/07/13 10:48:32;;;;;;;56.87;2.20;;;;;;;;;;5092072;28;20451;-67
2022/07/13 10:51:00;;;;;;;56.67;2.23;;;;;;;;;;5092324;28;20457;-67
2022/07/13 10:53:43;;;;;;;56.87;2.07;;;;;;;;;;5092266;28;20553;-67
2022/07/13 10:56:16;;;;;;;57.10;2.30;;;;;;;;;;5091787;28;20830;-67
2022/07/13 10:58:46;;;;;;;56.37;2.10;;;;;;;;;;5091843;28;20822;-67
2022/07/13 11:01:48;;;;;;;56.67;2.10;;;;;;;;;;5092660;28;20759;-67
2022/07/13 11:04:17;;;;;;;57.00;1.87;;;;;;;;;;5028602;28;20485;-67
2022/07/13 11:06:44;;;;;;;56.80;1.93;;;;;;;;;;5080733;28;20471;-67
2022/07/13 11:09:12;;;;;;;56.37;1.87;;;;;;;;;;5092426;28;20446;-67
2022/07/13 11:11:49;;;;;;;56.57;2.10;;;;;;;;;;5092661;28;20537;-67
2022/07/13 11:14:34;;;;;;;57.03;2.53;;;;;;;;;;5092275;28;20975;-67
2022/07/13 11:17:11;;;;;;;56.70;2.10;;;;;;;;;;5092233;28;20450;-67
2022/07/13 11:20:09;;;;;;;57.20;2.40;;;;;;;;;;5092574;28;20443;-67
2022/07/13 11:25:31;;;;;;;57.90;2.57;;;;;;;;;;5092138;28;20575;-67
2022/07/13 11:28:04;;;;;;;56.57;1.83;;;;;;;;;;5092199;28;20450;-67
2022/07/13 11:30:33;;;;;;;57.03;2.00;;;;;;;;;;5092147;28;20453;-67
2022/07/13 11:33:02;;;;;;;56.97;1.90;;;;;;;;;;5092084;28;20450;-67
2022/07/13 11:35:29;;;;;;;58.03;2.37;;;;;;;;;;5092121;28;20468;-67
2022/07/13 11:37:57;;;;;;;58.13;2.00;;;;;;;;;;5091764;28;20472;-67
2022/07/13 11:40:32;;;;;;;56.47;1.87;;;;;;;;;;5092243;28;20909;-67
2022/07/13 11:43:03;;;;;;;56.33;2.00;;;;;;;;;;5092276;28;20441;-67
2022/07/13 11:45:32;;;;;;;57.10;2.30;;;;;;;;;;5091874;28;21034;-67
2022/07/13 11:48:00;;;;;;;56.70;1.97;;;;;;;;;;5091670;28;20478;-67
2022/07/13 11:50:54;;;;;;;55.83;2.00;;;;;;;;;;5091219;28;20487;-67
2022/07/13 11:53:23;;;;;;;56.30;1.90;;;;;;;;;;5055575;28;20461;-67
2022/07/13 11:55:51;;;;;;;56.37;1.90;;;;;;;;;;5091860;28;20546;-67
2022/07/13 11:58:22;;;;;;;56.17;1.93;;;;;;;;;;5091534;28;20863;-67
2022/07/13 12:00:49;;;;;;;56.70;2.03;;;;;;;;;;5091704;28;20454;-67
2022/07/13 12:03:17;;;;;;;56.30;1.93;;;;;;;;;;5091719;28;20446;-67
2022/07/13 12:05:45;;;;;;;56.50;2.10;;;;;;;;;;5091864;28;20451;-67
2022/07/13 12:08:12;;;;;;;55.90;1.60;;;;;;;;;;5091434;28;20453;-67
2022/07/13 12:10:40;;;;;;;55.90;1.93;;;;;;;;;;5091832;28;20875;-68
2022/07/13 12:13:08;;;;;;;61.20;1.90;;;;;;;;;;5091532;28;20962;-68
2022/07/13 12:15:35;;;;;;;56.13;2.30;;;;;;;;;;5091788;28;20482;-67
2022/07/13 12:18:05;;;;;;;55.90;1.80;;;;;;;;;;5091541;28;20480;-67
2022/07/13 12:20:33;;;;;;;56.70;1.80;;;;;;;;;;5091771;28;20504;-67
2022/07/13 12:23:00;;;;;;;56.43;2.07;;;;;;;;;;5091871;28;20864;-67
2022/07/13 12:25:28;;;;;;;56.80;2.20;;;;;;;;;;5091646;28;20462;-67
2022/07/13 12:27:59;;;;;;;56.67;1.90;;;;;;;;;;5091198;28;20483;-67
2022/07/13 12:30:26;;;;;;;56.67;2.00;;;;;;;;;;5091795;28;20806;-67
2022/07/13 12:32:56;;;;;;;56.47;1.90;;;;;;;;;;5091351;28;20446;-67
2022/07/13 12:35:25;;;;;;;60.03;2.27;;;;;;;;;;5091343;28;20484;-67
2022/07/13 12:37:53;;;;;;;56.80;1.90;;;;;;;;;;5091336;28;20450;-66
2022/07/13 12:40:38;;;;;;;57.20;1.97;;;;;;;;;;5091539;28;20540;-67
2022/07/13 12:43:15;;;;;;;56.23;1.80;;;;;;;;;;5091615;28;20472;-67
2022/07/13 12:45:43;;;;;;;56.70;1.80;;;;;;;;;;5091729;28;20820;-67
2022/07/13 12:48:14;;;;;;;56.47;1.70;;;;;;;;;;5091178;28;20511;-67
2022/07/13 12:50:41;;;;;;;56.80;2.10;;;;;;;;;;5091318;28;20455;-66
2022/07/13 12:53:09;;;;;;;57.30;2.00;;;;;;;;;;5091455;28;20449;-67
2022/07/13 12:55:51;;;;;;;57.00;2.13;;;;;;;;;;5091645;28;20486;-67
2022/07/13 12:58:19;;;;;;;57.63;1.90;;;;;;;;;;5091226;28;20449;-67
2022/07/13 13:00:47;;;;;;;57.70;2.00;;;;;;;;;;5091489;28;20454;-67
2022/07/13 13:03:14;;;;;;;56.07;2.00;;;;;;;;;;5094800;28;20461;-67
2022/07/13 13:05:42;;;;;;;55.77;1.80;;;;;;;;;;5095107;28;20875;-67
2022/07/13 13:08:09;;;;;;;56.70;1.63;;;;;;;;;;5094981;28;20446;-67
2022/07/13 13:10:36;;;;;;;56.60;1.90;;;;;;;;;;5094787;28;20448;-67
2022/07/13 13:13:05;;;;;;;56.50;1.80;;;;;;;;;;5094829;28;20455;-66
2022/07/13 13:15:34;;;;;;;56.60;1.90;;;;;;;;;;5094674;28;20482;-67
2022/07/13 13:18:01;;;;;;;56.57;1.70;;;;;;;;;;5094272;28;20446;-66
2022/07/13 13:20:28;;;;;;;56.70;1.90;;;;;;;;;;5094621;28;20454;-67
2022/07/13 13:22:56;;;;;;;56.93;1.80;;;;;;;;;;5094383;28;20446;-66
2022/07/13 13:25:23;;;;;;;57.07;2.00;;;;;;;;;;5094562;28;20463;-66
2022/07/13 13:27:50;;;;;;;56.93;2.00;;;;;;;;;;5094312;28;20825;-66
2022/07/13 13:33:03;;;;;;;56.87;1.97;;;;;;;;;;5094304;28;20441;-66
2022/07/13 13:35:31;;;;;;;57.07;2.10;;;;;;;;;;5094390;28;20486;-66
2022/07/13 13:37:58;;;;;;;57.20;2.30;;;;;;;;;;5094013;28;20478;-66
2022/07/13 13:40:25;;;;;;;56.67;1.90;;;;;;;;;;5094312;28;20570;-66
2022/07/13 13:42:53;;;;;;;57.40;1.90;;;;;;;;;;5094072;28;20443;-66
2022/07/13 13:45:20;;;;;;;57.27;2.20;;;;;;;;;;5094413;28;20879;-66
2022/07/13 13:47:47;;;;;;;56.97;1.73;;;;;;;;;;5093986;28;20442;-67
2022/07/13 13:50:15;;;;;;;56.87;1.90;;;;;;;;;;5094056;28;20935;-67
2022/07/13 13:52:42;;;;;;;57.23;1.90;;;;;;;;;;5093908;28;20442;-67
2022/07/13 13:55:10;;;;;;;57.17;2.00;;;;;;;;;;5093836;28;20493;-66
2022/07/13 13:57:37;;;;;;;57.17;1.80;;;;;;;;;;5093545;28;20534;-66
2022/07/13 14:00:05;;;;;;;57.37;2.20;;;;;;;;;;5093842;28;20447;-67
2022/07/13 14:02:32;;;;;;;57.00;1.83;;;;;;;;;;5093881;28;20461;-67
2022/07/13 14:05:01;;;;;;;57.33;1.93;;;;;;;;;;5093788;28;20517;-67
2022/07/13 14:07:30;;;;;;;58.00;1.93;;;;;;;;;;5093559;28;20577;-66
2022/07/13 14:09:57;;;;;;;57.50;2.00;;;;;;;;;;5093522;28;20453;-67
2022/07/13 14:12:25;;;;;;;57.80;2.00;;;;;;;;;;5093441;28;20957;-66
2022/07/13 14:14:52;;;;;;;57.57;1.90;;;;;;;;;;5093328;28;20616;-67
2022/07/13 14:17:20;;;;;;;57.47;2.10;;;;;;;;;;5093315;28;20446;-67
2022/07/13 14:19:47;;;;;;;58.73;2.10;;;;;;;;;;5093577;28;20541;-66
2022/07/13 14:22:14;;;;;;;57.60;1.77;;;;;;;;;;5093555;28;20453;-67
2022/07/13 14:24:42;;;;;;;57.90;2.00;;;;;;;;;;5093238;28;20458;-67
2022/07/13 14:27:09;;;;;;;57.43;1.80;;;;;;;;;;5093261;28;20473;-67
2022/07/13 14:29:37;;;;;;;57.50;1.73;;;;;;;;;;5093436;28;20447;-67
2022/07/13 14:32:04;;;;;;;57.40;1.90;;;;;;;;;;5093447;28;20472;-67
2022/07/13 14:34:31;;;;;;;57.50;1.90;;;;;;;;;;5093296;28;20490;-67
2022/07/13 14:37:00;;;;;;;57.77;2.07;;;;;;;;;;5093070;28;20447;-67
2022/07/13 14:39:27;;;;;;;57.43;2.00;;;;;;;;;;5092961;28;20443;-67
2022/07/13 14:41:55;;;;;;;57.67;2.10;;;;;;;;;;5093089;28;20972;-67
2022/07/13 14:44:22;;;;;;;58.37;2.17;;;;;;;;;;5093282;28;20868;-67
2022/07/13 14:46:49;;;;;;;57.27;2.00;;;;;;;;;;5092933;28;20449;-67
2022/07/13 14:49:16;;;;;;;57.57;2.10;;;;;;;;;;5092812;28;20824;-67
2022/07/13 14:51:44;;;;;;;57.77;2.20;;;;;;;;;;5092786;28;20446;-67